Time;durP1;ratioP1;P1;durP2;ratioP2;P2;SDS_P1;SDS_P2;PMS_P1;PMS_P2;Temp;Humidity;BMP_temperature;BMP_pressure;BME280_temperature;BME280_humidity;BME280_pressure;Samples;Min_cycle;Max_cycle;Signal;HPM_P1;HPM_P2
2021/06/01 00:01:14;;;;;;;3.87;3.57;;;;;;;;;;5071444;28;20400;-51
2021/06/01 00:03:40;;;;;;;7.07;3.60;;;;;;;;;;5071615;28;20404;-51
2021/06/01 00:06:06;;;;;;;4.20;3.60;;;;;;;;;;5071470;28;20416;-51
2021/06/01 00:08:32;;;;;;;3.50;3.20;;;;;;;;;;5071486;28;20464;-51
2021/06/01 00:10:58;;;;;;;3.60;3.20;;;;;;;;;;5071415;28;20513;-51
2021/06/01 00:13:25;;;;;;;3.60;3.27;;;;;;;;;;5071262;28;20784;-51
2021/06/01 00:15:51;;;;;;;3.37;3.07;;;;;;;;;;5071439;28;20383;-51
2021/06/01 00:18:17;;;;;;;3.50;3.20;;;;;;;;;;5071515;28;20409;-51
2021/06/01 00:20:42;;;;;;;4.17;3.33;;;;;;;;;;5071503;28;20413;-50
2021/06/01 00:23:08;;;;;;;4.13;3.30;;;;;;;;;;5071184;28;20416;-51
2021/06/01 00:25:34;;;;;;;5.27;3.43;;;;;;;;;;5071454;28;20883;-51
2021/06/01 00:28:00;;;;;;;4.03;3.63;;;;;;;;;;5071058;28;20459;-51
2021/06/01 00:30:26;;;;;;;4.00;3.60;;;;;;;;;;5071289;28;20884;-51
2021/06/01 00:32:52;;;;;;;6.60;3.40;;;;;;;;;;5070702;28;20375;-51
2021/06/01 00:35:18;;;;;;;6.97;3.67;;;;;;;;;;5070996;28;20439;-51
2021/06/01 00:37:44;;;;;;;8.13;3.93;;;;;;;;;;5070842;28;20459;-51
2021/06/01 00:40:10;;;;;;;5.20;4.67;;;;;;;;;;5071001;28;20762;-52
2021/06/01 00:42:36;;;;;;;5.20;3.90;;;;;;;;;;5070547;28;20378;-51
2021/06/01 00:45:03;;;;;;;3.90;3.60;;;;;;;;;;5070943;28;20408;-51
2021/06/01 00:47:29;;;;;;;6.53;3.90;;;;;;;;;;5070657;28;20527;-51
2021/06/01 00:49:55;;;;;;;4.20;3.80;;;;;;;;;;5070742;28;20469;-51
2021/06/01 00:52:21;;;;;;;3.90;3.33;;;;;;;;;;5069794;28;20405;-51
2021/06/01 00:54:47;;;;;;;5.10;4.60;;;;;;;;;;5070695;28;20899;-52
2021/06/01 00:57:13;;;;;;;4.80;4.03;;;;;;;;;;5070756;28;20892;-51
2021/06/01 00:59:39;;;;;;;6.13;3.97;;;;;;;;;;5070563;28;20430;-51
2021/06/01 01:02:05;;;;;;;5.23;3.50;;;;;;;;;;5069845;28;20386;-53
2021/06/01 01:04:32;;;;;;;4.93;3.70;;;;;;;;;;5070027;28;20765;-52
2021/06/01 01:07:23;;;;;;;6.30;4.40;;;;;;;;;;5070356;28;20404;-51
2021/06/01 01:09:50;;;;;;;6.23;4.20;;;;;;;;;;5070329;28;20403;-51
2021/06/01 01:12:24;;;;;;;4.77;4.17;;;;;;;;;;5070386;28;20900;-51
2021/06/01 01:14:51;;;;;;;4.27;3.87;;;;;;;;;;5070281;28;20795;-52
2021/06/01 01:17:19;;;;;;;7.10;4.37;;;;;;;;;;5070620;28;20853;-53
2021/06/01 01:19:57;;;;;;;9.03;4.20;;;;;;;;;;5070318;28;20466;-53
2021/06/01 01:22:23;;;;;;;5.47;4.97;;;;;;;;;;5070305;28;20470;-52
2021/06/01 01:24:57;;;;;;;13.33;4.10;;;;;;;;;;5070377;28;20433;-53
2021/06/01 01:27:42;;;;;;;4.70;3.50;;;;;;;;;;5070365;28;20422;-53
2021/06/01 01:30:09;;;;;;;5.47;4.23;;;;;;;;;;5070357;28;20392;-53
2021/06/01 01:32:37;;;;;;;6.00;4.87;;;;;;;;;;5070191;28;20835;-52
2021/06/01 01:35:05;;;;;;;7.27;4.50;;;;;;;;;;5070187;28;20429;-53
2021/06/01 01:37:33;;;;;;;8.40;4.17;;;;;;;;;;5070320;28;20423;-53
2021/06/01 01:39:59;;;;;;;5.10;4.20;;;;;;;;;;5070167;28;20503;-53
2021/06/01 01:42:36;;;;;;;4.87;4.47;;;;;;;;;;5070275;28;20385;-54
2021/06/01 01:45:04;;;;;;;4.40;3.90;;;;;;;;;;5070341;28;20900;-53
2021/06/01 01:50:01;;;;;;;3.90;3.50;;;;;;;;;;5070243;28;20940;-52
2021/06/01 01:52:27;;;;;;;7.00;4.30;;;;;;;;;;5069882;28;20415;-53
2021/06/01 01:54:55;;;;;;;5.73;4.70;;;;;;;;;;5070235;28;20404;-52
2021/06/01 01:57:21;;;;;;;6.40;4.53;;;;;;;;;;5070114;28;20405;-52
2021/06/01 01:59:47;;;;;;;9.53;5.23;;;;;;;;;;5070243;28;20426;-53
2021/06/01 02:02:14;;;;;;;6.67;4.30;;;;;;;;;;5069794;28;20767;-53
2021/06/01 02:04:40;;;;;;;5.90;4.57;;;;;;;;;;5073827;28;21014;-53
2021/06/01 02:07:06;;;;;;;9.07;4.77;;;;;;;;;;5073714;28;20890;-53
2021/06/01 02:09:33;;;;;;;6.20;4.20;;;;;;;;;;5073708;28;20456;-54
2021/06/01 02:11:59;;;;;;;6.40;4.10;;;;;;;;;;5063696;28;20405;-53
2021/06/01 02:14:25;;;;;;;5.03;4.03;;;;;;;;;;5053409;28;21012;-54
2021/06/01 02:16:51;;;;;;;6.20;4.10;;;;;;;;;;5053668;28;20379;-54
2021/06/01 02:19:17;;;;;;;6.03;4.03;;;;;;;;;;5053555;28;20746;-54
2021/06/01 02:22:00;;;;;;;4.57;4.17;;;;;;;;;;5053528;28;20487;-54
2021/06/01 02:24:29;;;;;;;5.03;4.40;;;;;;;;;;5053669;28;21018;-54
2021/06/01 02:27:04;;;;;;;4.80;4.40;;;;;;;;;;5053528;28;20901;-54
2021/06/01 02:29:48;;;;;;;10.30;5.00;;;;;;;;;;5053383;28;20938;-54
2021/06/01 02:32:14;;;;;;;10.27;5.33;;;;;;;;;;5053238;28;20451;-54
2021/06/01 02:34:42;;;;;;;5.10;4.60;;;;;;;;;;5053227;28;20413;-54
2021/06/01 02:37:08;;;;;;;11.03;4.87;;;;;;;;;;5053451;28;20375;-54
2021/06/01 02:39:36;;;;;;;5.83;4.63;;;;;;;;;;5053110;28;20413;-54
2021/06/01 02:42:02;;;;;;;5.50;5.00;;;;;;;;;;5053075;28;20393;-54
2021/06/01 02:44:30;;;;;;;6.00;5.43;;;;;;;;;;5053406;28;20480;-54
2021/06/01 02:46:56;;;;;;;5.07;4.57;;;;;;;;;;5053366;28;20397;-54
2021/06/01 02:49:23;;;;;;;5.63;5.10;;;;;;;;;;5053000;28;20425;-54
2021/06/01 02:51:50;;;;;;;7.90;4.90;;;;;;;;;;5052881;28;20412;-54
2021/06/01 02:54:16;;;;;;;12.47;4.60;;;;;;;;;;5052785;28;20401;-54
2021/06/01 02:56:42;;;;;;;5.70;4.90;;;;;;;;;;5052830;28;20425;-54
2021/06/01 02:59:08;;;;;;;8.20;5.30;;;;;;;;;;5052679;28;20433;-54
2021/06/01 03:01:35;;;;;;;5.53;4.63;;;;;;;;;;5052664;28;20397;-55
2021/06/01 03:04:01;;;;;;;6.43;4.57;;;;;;;;;;5052751;28;20955;-54
2021/06/01 03:06:28;;;;;;;5.50;5.00;;;;;;;;;;5052818;28;20412;-54
2021/06/01 03:08:55;;;;;;;5.67;4.63;;;;;;;;;;5052563;28;20460;-53
2021/06/01 03:11:22;;;;;;;8.17;4.50;;;;;;;;;;5052215;28;20485;-52
2021/06/01 03:13:48;;;;;;;7.83;5.53;;;;;;;;;;5052274;28;20403;-53
2021/06/01 03:16:15;;;;;;;8.00;5.40;;;;;;;;;;5051821;28;20389;-52
2021/06/01 03:18:42;;;;;;;6.10;5.40;;;;;;;;;;5052481;28;20425;-52
2021/06/01 03:21:08;;;;;;;8.70;5.30;;;;;;;;;;5052367;28;20393;-52
2021/06/01 03:23:34;;;;;;;6.60;4.60;;;;;;;;;;5052243;28;20409;-52
2021/06/01 03:26:00;;;;;;;6.30;5.03;;;;;;;;;;5052220;28;20407;-52
2021/06/01 03:28:26;;;;;;;7.20;4.80;;;;;;;;;;5052225;28;20552;-52
2021/06/01 03:30:52;;;;;;;8.33;4.80;;;;;;;;;;5052194;28;20429;-52
2021/06/01 03:33:19;;;;;;;5.30;4.83;;;;;;;;;;5052130;28;20458;-52
2021/06/01 03:35:45;;;;;;;7.00;5.43;;;;;;;;;;5052029;28;20448;-52
2021/06/01 03:38:13;;;;;;;6.07;5.00;;;;;;;;;;5052124;28;20423;-52
2021/06/01 03:40:39;;;;;;;10.13;6.03;;;;;;;;;;5052075;28;20408;-52
2021/06/01 03:43:05;;;;;;;6.30;5.20;;;;;;;;;;5051740;28;20446;-52
2021/06/01 03:45:32;;;;;;;6.47;5.00;;;;;;;;;;5052077;28;21009;-52
2021/06/01 03:47:58;;;;;;;12.17;5.40;;;;;;;;;;5051891;28;20999;-52
2021/06/01 03:50:25;;;;;;;6.50;5.30;;;;;;;;;;5051998;28;20406;-53
2021/06/01 03:52:51;;;;;;;6.80;5.90;;;;;;;;;;5051451;28;20401;-53
2021/06/01 03:55:17;;;;;;;6.20;5.60;;;;;;;;;;5051829;28;20458;-52
2021/06/01 03:57:47;;;;;;;5.83;5.30;;;;;;;;;;5051739;28;20412;-53
2021/06/01 04:00:16;;;;;;;9.43;5.63;;;;;;;;;;5051949;28;20752;-52
2021/06/01 04:02:42;;;;;;;9.53;6.17;;;;;;;;;;5051686;28;20451;-52
2021/06/01 04:05:08;;;;;;;6.03;5.47;;;;;;;;;;5051985;28;20404;-52
2021/06/01 04:07:34;;;;;;;9.87;6.67;;;;;;;;;;5051359;28;20421;-52
2021/06/01 04:10:01;;;;;;;9.50;5.70;;;;;;;;;;5051651;28;20411;-52
2021/06/01 04:12:27;;;;;;;9.73;6.30;;;;;;;;;;5051233;28;21037;-52
2021/06/01 04:14:53;;;;;;;7.47;5.40;;;;;;;;;;5051690;28;20979;-52
2021/06/01 04:17:19;;;;;;;6.90;6.20;;;;;;;;;;5051563;28;20410;-52
2021/06/01 04:19:45;;;;;;;10.40;6.27;;;;;;;;;;5051295;28;20428;-52
2021/06/01 04:22:11;;;;;;;6.80;6.10;;;;;;;;;;5051068;28;20408;-52
2021/06/01 04:24:37;;;;;;;8.07;7.20;;;;;;;;;;5051188;28;20414;-52
2021/06/01 04:27:03;;;;;;;6.60;6.00;;;;;;;;;;5051397;28;20429;-52
2021/06/01 04:29:29;;;;;;;9.00;5.70;;;;;;;;;;5050042;28;20795;-52
2021/06/01 04:31:55;;;;;;;8.23;6.70;;;;;;;;;;5051062;28;20420;-52
2021/06/01 04:34:21;;;;;;;7.40;6.37;;;;;;;;;;5050813;28;20430;-52
2021/06/01 04:36:47;;;;;;;9.10;5.40;;;;;;;;;;5050965;28;20810;-52
2021/06/01 04:39:13;;;;;;;8.83;6.00;;;;;;;;;;5050824;28;20457;-52
2021/06/01 04:41:39;;;;;;;6.90;6.20;;;;;;;;;;5050846;28;20462;-52
2021/06/01 04:44:06;;;;;;;7.33;5.97;;;;;;;;;;5050817;28;20440;-52
2021/06/01 04:46:32;;;;;;;9.17;5.90;;;;;;;;;;5050933;28;20397;-53
2021/06/01 04:48:58;;;;;;;7.03;6.33;;;;;;;;;;5050811;28;20467;-53
2021/06/01 04:51:24;;;;;;;8.37;5.97;;;;;;;;;;5050479;28;20403;-53
2021/06/01 04:53:51;;;;;;;6.47;5.83;;;;;;;;;;5050783;28;20404;-52
2021/06/01 04:56:17;;;;;;;6.80;5.87;;;;;;;;;;5050629;28;20372;-53
2021/06/01 04:58:43;;;;;;;9.03;7.33;;;;;;;;;;5050674;28;20420;-53
2021/06/01 05:01:09;;;;;;;8.03;6.47;;;;;;;;;;5050619;28;20781;-53
2021/06/01 05:03:35;;;;;;;8.73;6.33;;;;;;;;;;5050510;28;20468;-52
2021/06/01 05:06:01;;;;;;;6.93;6.23;;;;;;;;;;5050478;28;20474;-52
2021/06/01 05:08:27;;;;;;;7.63;6.83;;;;;;;;;;5050578;28;20460;-53
2021/06/01 05:10:53;;;;;;;8.13;6.40;;;;;;;;;;5050470;28;20912;-52
2021/06/01 05:13:19;;;;;;;12.20;5.73;;;;;;;;;;5050462;28;20402;-53
2021/06/01 05:15:45;;;;;;;15.17;6.77;;;;;;;;;;5050455;28;20488;-53
2021/06/01 05:18:12;;;;;;;10.07;6.67;;;;;;;;;;5050574;28;20932;-52
2021/06/01 05:20:38;;;;;;;9.43;5.63;;;;;;;;;;5050426;28;20409;-52
2021/06/01 05:23:04;;;;;;;7.17;6.10;;;;;;;;;;5050129;28;20496;-52
2021/06/01 05:25:30;;;;;;;12.77;6.60;;;;;;;;;;5050488;28;20483;-52
2021/06/01 05:27:56;;;;;;;6.67;5.70;;;;;;;;;;5050232;28;20460;-52
2021/06/01 05:30:31;;;;;;;11.50;6.80;;;;;;;;;;5050558;28;20520;-52
2021/06/01 05:33:19;;;;;;;8.20;6.50;;;;;;;;;;5049987;28;20413;-54
2021/06/01 05:35:53;;;;;;;7.03;5.60;;;;;;;;;;5050090;28;20440;-53
2021/06/01 05:38:20;;;;;;;14.20;6.50;;;;;;;;;;5051923;28;20922;-52
2021/06/01 05:40:46;;;;;;;13.20;7.00;;;;;;;;;;5054513;28;20386;-52
2021/06/01 05:43:14;;;;;;;14.10;6.47;;;;;;;;;;5054118;28;20805;-52
2021/06/01 05:45:40;;;;;;;7.80;6.23;;;;;;;;;;5054154;28;20425;-52
2021/06/01 05:48:07;;;;;;;9.20;6.27;;;;;;;;;;5054034;28;20519;-53
2021/06/01 05:50:33;;;;;;;12.27;5.43;;;;;;;;;;5054285;28;20397;-52
2021/06/01 05:53:00;;;;;;;7.50;5.43;;;;;;;;;;5053860;28;20398;-53
2021/06/01 05:55:27;;;;;;;7.03;6.37;;;;;;;;;;5054304;28;20449;-53
2021/06/01 05:57:53;;;;;;;5.93;5.33;;;;;;;;;;5053958;28;20896;-52
2021/06/01 06:00:19;;;;;;;9.93;5.87;;;;;;;;;;5054157;28;20408;-52
2021/06/01 06:02:47;;;;;;;8.40;6.83;;;;;;;;;;5053801;28;20409;-53
2021/06/01 06:05:13;;;;;;;8.47;6.00;;;;;;;;;;5053912;28;20412;-53
2021/06/01 06:07:40;;;;;;;14.57;6.53;;;;;;;;;;5053576;28;20499;-52
2021/06/01 06:10:06;;;;;;;10.10;6.50;;;;;;;;;;5053413;28;20371;-53
2021/06/01 06:12:33;;;;;;;15.07;7.63;;;;;;;;;;5053199;28;20411;-53
2021/06/01 06:14:59;;;;;;;12.87;7.43;;;;;;;;;;5053485;28;20417;-53
2021/06/01 06:17:40;;;;;;;13.23;7.43;;;;;;;;;;5053655;28;20463;-53
2021/06/01 06:20:06;;;;;;;9.20;6.90;;;;;;;;;;5053603;28;20449;-52
2021/06/01 06:22:32;;;;;;;9.13;6.30;;;;;;;;;;5053322;28;20834;-53
2021/06/01 06:24:58;;;;;;;6.23;5.60;;;;;;;;;;5053416;28;20505;-53
2021/06/01 06:27:24;;;;;;;12.00;6.27;;;;;;;;;;5053454;28;20439;-53
2021/06/01 06:29:50;;;;;;;12.23;6.00;;;;;;;;;;5053332;28;20780;-52
2021/06/01 06:32:16;;;;;;;11.00;6.70;;;;;;;;;;5053218;28;20397;-53
2021/06/01 06:34:44;;;;;;;12.50;7.37;;;;;;;;;;5053147;28;20404;-53
2021/06/01 06:37:10;;;;;;;12.27;7.10;;;;;;;;;;5053386;28;20921;-52
2021/06/01 06:39:36;;;;;;;6.93;6.20;;;;;;;;;;5053115;28;20408;-53
2021/06/01 06:42:02;;;;;;;9.20;6.17;;;;;;;;;;5052943;28;20416;-52
2021/06/01 06:44:28;;;;;;;8.93;5.50;;;;;;;;;;5053179;28;20881;-53
2021/06/01 06:49:30;;;;;;;9.07;5.30;;;;;;;;;;5046789;28;21004;-53
2021/06/01 06:51:56;;;;;;;8.77;5.80;;;;;;;;;;5047545;28;20455;-53
2021/06/01 06:54:22;;;;;;;11.97;4.60;;;;;;;;;;5039192;28;20388;-53
2021/06/01 06:56:47;;;;;;;8.43;5.07;;;;;;;;;;5049639;28;20413;-53
2021/06/01 06:59:14;;;;;;;7.23;4.43;;;;;;;;;;5052835;28;20424;-53
2021/06/01 07:01:40;;;;;;;4.20;3.87;;;;;;;;;;5041917;28;20475;-52
2021/06/01 07:04:06;;;;;;;6.03;3.77;;;;;;;;;;5035938;28;20514;-52
2021/06/01 07:06:32;;;;;;;4.53;3.90;;;;;;;;;;5046593;28;20917;-53
2021/06/01 07:08:57;;;;;;;7.63;5.10;;;;;;;;;;5032639;28;20840;-53
2021/06/01 07:11:23;;;;;;;8.43;5.40;;;;;;;;;;5032592;28;20406;-53
2021/06/01 07:13:57;;;;;;;7.27;4.70;;;;;;;;;;5033668;28;20419;-53
2021/06/01 07:16:22;;;;;;;5.53;5.00;;;;;;;;;;5032764;28;20468;-53
2021/06/01 07:18:49;;;;;;;6.00;5.33;;;;;;;;;;5033912;28;20437;-53
2021/06/01 07:21:15;;;;;;;6.73;4.37;;;;;;;;;;5032708;28;20417;-53
2021/06/01 07:23:41;;;;;;;6.87;4.63;;;;;;;;;;5032374;28;20421;-53
2021/06/01 07:26:08;;;;;;;10.90;4.70;;;;;;;;;;5045998;28;20905;-53
2021/06/01 07:28:34;;;;;;;6.20;4.77;;;;;;;;;;5047200;28;20551;-53
2021/06/01 07:31:01;;;;;;;9.77;5.30;;;;;;;;;;5051165;28;20488;-53
2021/06/01 07:33:27;;;;;;;8.00;4.73;;;;;;;;;;5050167;28;20418;-53
2021/06/01 07:35:53;;;;;;;7.77;5.00;;;;;;;;;;5050220;28;20464;-53
2021/06/01 07:38:19;;;;;;;6.60;4.33;;;;;;;;;;5031713;28;20452;-53
2021/06/01 07:40:45;;;;;;;6.73;4.50;;;;;;;;;;5032431;28;20991;-53
2021/06/01 07:43:11;;;;;;;6.83;3.77;;;;;;;;;;5044019;28;20462;-52
2021/06/01 07:45:37;;;;;;;5.10;3.90;;;;;;;;;;5042175;28;20917;-52
2021/06/01 07:48:03;;;;;;;8.13;3.83;;;;;;;;;;5034911;28;20458;-53
2021/06/01 07:50:30;;;;;;;4.90;4.10;;;;;;;;;;5053053;28;20490;-52
2021/06/01 07:52:57;;;;;;;7.27;4.30;;;;;;;;;;5054980;28;20445;-52
2021/06/01 07:55:23;;;;;;;5.30;3.80;;;;;;;;;;5050871;28;20413;-52
2021/06/01 07:57:49;;;;;;;5.90;4.00;;;;;;;;;;5038644;28;20417;-52
2021/06/01 08:00:15;;;;;;;6.40;3.60;;;;;;;;;;5039861;28;20906;-52
2021/06/01 08:02:42;;;;;;;9.07;4.03;;;;;;;;;;5043780;28;20480;-52
2021/06/01 08:05:08;;;;;;;7.73;5.70;;;;;;;;;;5040410;28;20413;-52
2021/06/01 08:07:34;;;;;;;4.27;3.90;;;;;;;;;;5042872;28;20459;-52
2021/06/01 08:10:04;;;;;;;6.50;4.13;;;;;;;;;;5044769;28;20417;-52
2021/06/01 08:12:30;;;;;;;3.90;3.60;;;;;;;;;;5049349;28;20813;-53
2021/06/01 08:14:58;;;;;;;3.53;3.20;;;;;;;;;;5050970;28;20397;-53
2021/06/01 08:17:24;;;;;;;4.53;3.77;;;;;;;;;;5051349;28;20433;-52
2021/06/01 08:19:53;;;;;;;4.30;4.00;;;;;;;;;;5051264;28;20512;-52
2021/06/01 08:24:45;;;;;;;3.30;3.10;;;;;;;;;;5049835;28;20776;-53
2021/06/01 08:27:11;;;;;;;7.83;5.07;;;;;;;;;;5050591;28;20398;-53
2021/06/01 08:29:37;;;;;;;3.90;3.60;;;;;;;;;;5051277;28;20647;-53
2021/06/01 08:32:05;;;;;;;3.17;2.97;;;;;;;;;;5050840;28;21143;-52
2021/06/01 08:34:31;;;;;;;5.77;3.60;;;;;;;;;;5050944;28;20494;-52
2021/06/01 08:36:57;;;;;;;9.80;5.20;;;;;;;;;;5051054;28;20450;-53
2021/06/01 08:39:26;;;;;;;4.73;3.80;;;;;;;;;;5049908;28;20495;-52
2021/06/01 08:41:53;;;;;;;4.73;3.17;;;;;;;;;;5049440;28;20470;-52
2021/06/01 08:44:19;;;;;;;3.77;3.57;;;;;;;;;;5050926;28;20419;-52
2021/06/01 08:46:49;;;;;;;3.20;3.00;;;;;;;;;;5050734;28;20463;-52
2021/06/01 08:49:15;;;;;;;2.47;2.37;;;;;;;;;;5050986;28;20506;-52
2021/06/01 08:51:41;;;;;;;3.40;3.10;;;;;;;;;;5050630;28;20432;-54
2021/06/01 08:54:07;;;;;;;3.07;2.87;;;;;;;;;;5050837;28;20804;-54
2021/06/01 08:56:33;;;;;;;3.10;2.90;;;;;;;;;;5050720;28;20402;-53
2021/06/01 08:58:59;;;;;;;4.20;3.13;;;;;;;;;;5050721;28;20429;-53
2021/06/01 09:01:25;;;;;;;4.13;2.97;;;;;;;;;;5049191;28;20474;-53
2021/06/01 09:03:54;;;;;;;3.00;2.70;;;;;;;;;;5050719;28;20489;-54
2021/06/01 09:22:31;;;;;;;6.60;2.93;;;;;;;;;;5050293;28;20936;-53
2021/06/01 09:25:03;;;;;;;3.90;2.60;;;;;;;;;;5050674;28;20429;-52
2021/06/01 09:27:32;;;;;;;2.90;2.70;;;;;;;;;;5050455;28;20445;-53
2021/06/01 09:29:58;;;;;;;3.93;2.30;;;;;;;;;;5050421;28;20443;-53
2021/06/01 09:32:24;;;;;;;2.60;2.40;;;;;;;;;;5050329;28;20397;-54
2021/06/01 09:34:51;;;;;;;2.50;2.40;;;;;;;;;;5050433;28;20421;-54
2021/06/01 09:37:17;;;;;;;3.20;3.00;;;;;;;;;;5050770;28;20759;-53
2021/06/01 09:39:44;;;;;;;5.10;2.93;;;;;;;;;;5050581;28;20778;-52
2021/06/01 09:42:26;;;;;;;3.10;2.67;;;;;;;;;;5050378;28;20454;-52
2021/06/01 09:45:05;;;;;;;3.10;2.90;;;;;;;;;;5050653;28;20402;-52
2021/06/01 09:47:51;;;;;;;4.73;2.60;;;;;;;;;;5050482;28;20457;-53
2021/06/01 09:50:27;;;;;;;3.67;2.50;;;;;;;;;;5050448;28;20408;-52
2021/06/01 09:52:56;;;;;;;2.93;2.23;;;;;;;;;;5050014;28;20411;-54
2021/06/01 09:55:26;;;;;;;2.93;2.73;;;;;;;;;;5049406;28;20971;-53
2021/06/01 09:57:52;;;;;;;2.50;2.30;;;;;;;;;;5032624;28;20434;-53
2021/06/01 10:00:19;;;;;;;3.10;2.90;;;;;;;;;;5048309;28;20385;-53
2021/06/01 10:02:51;;;;;;;2.40;2.30;;;;;;;;;;5047959;28;20416;-54
2021/06/01 10:05:20;;;;;;;2.57;2.10;;;;;;;;;;5047491;28;20408;-54
2021/06/01 10:07:47;;;;;;;3.00;1.90;;;;;;;;;;5048588;28;21014;-53
2021/06/01 10:10:14;;;;;;;2.67;2.27;;;;;;;;;;5049093;28;20401;-54
2021/06/01 10:12:40;;;;;;;2.60;2.40;;;;;;;;;;5048944;28;20390;-53
2021/06/01 10:15:07;;;;;;;2.43;2.33;;;;;;;;;;5048318;28;20444;-53
2021/06/01 10:17:33;;;;;;;3.77;2.87;;;;;;;;;;5049963;28;20409;-53
2021/06/01 10:19:59;;;;;;;2.63;2.43;;;;;;;;;;5049981;28;20413;-53
2021/06/01 10:22:25;;;;;;;3.43;3.17;;;;;;;;;;5049609;28;20883;-53
2021/06/01 10:24:51;;;;;;;4.20;3.80;;;;;;;;;;5052143;28;20413;-53
2021/06/01 10:27:17;;;;;;;3.33;3.03;;;;;;;;;;5053509;28;20401;-53
2021/06/01 10:29:43;;;;;;;3.10;2.77;;;;;;;;;;5053344;28;20498;-54
2021/06/01 10:32:11;;;;;;;7.77;6.70;;;;;;;;;;5053322;28;20401;-53
2021/06/01 10:34:37;;;;;;;3.70;2.40;;;;;;;;;;5053211;28;20425;-54
2021/06/01 10:42:44;;;;;;;3.00;2.70;;;;;;;;;;5052767;28;20405;-54
2021/06/01 10:53:05;;;;;;;2.57;2.47;;;;;;;;;;5052963;28;20442;-53
2021/06/01 10:55:50;;;;;;;3.63;3.20;;;;;;;;;;5052933;28;20446;-53
2021/06/01 10:58:19;;;;;;;2.93;2.70;;;;;;;;;;5052812;28;20512;-54
2021/06/01 11:03:18;;;;;;;2.37;2.27;;;;;;;;;;5052700;28;20402;-53
2021/06/01 11:05:57;;;;;;;2.50;2.27;;;;;;;;;;5052785;28;20404;-53
2021/06/01 11:08:40;;;;;;;3.00;2.30;;;;;;;;;;5052499;28;20444;-53
2021/06/01 11:11:26;;;;;;;2.63;2.10;;;;;;;;;;5052614;28;20397;-54
2021/06/01 11:13:52;;;;;;;2.33;2.23;;;;;;;;;;5052736;28;20396;-53
2021/06/01 11:16:18;;;;;;;2.97;2.77;;;;;;;;;;5052506;28;20397;-54
2021/06/01 11:18:50;;;;;;;2.53;2.30;;;;;;;;;;5052473;28;20414;-54
2021/06/01 11:21:41;;;;;;;3.10;1.90;;;;;;;;;;5052246;28;20761;-54
2021/06/01 11:35:23;;;;;;;2.73;2.30;;;;;;;;;;5051776;28;20967;-54
2021/06/01 11:43:04;;;;;;;3.27;2.60;;;;;;;;;;5032160;28;20413;-53
2021/06/01 11:45:47;;;;;;;6.27;2.63;;;;;;;;;;5032146;28;20401;-54
2021/06/01 11:50:59;;;;;;;2.70;2.50;;;;;;;;;;5032038;28;20398;-53
2021/06/01 11:53:25;;;;;;;3.73;2.40;;;;;;;;;;5031563;28;20394;-53
2021/06/01 11:56:00;;;;;;;3.00;2.70;;;;;;;;;;5031868;28;20469;-54
2021/06/01 12:04:05;;;;;;;5.77;4.20;;;;;;;;;;5031619;28;20425;-54
2021/06/01 12:12:28;;;;;;;4.17;3.30;;;;;;;;;;5031644;28;20406;-54
2021/06/01 12:17:50;;;;;;;3.37;2.50;;;;;;;;;;5031613;28;20410;-54
2021/06/01 12:20:16;;;;;;;2.73;2.53;;;;;;;;;;5031203;28;20405;-54
2021/06/01 12:22:42;;;;;;;2.40;2.20;;;;;;;;;;5031125;28;20434;-53
2021/06/01 12:25:11;;;;;;;3.97;2.50;;;;;;;;;;5031095;28;20437;-54
2021/06/01 12:27:57;;;;;;;2.87;2.67;;;;;;;;;;5031102;28;20968;-53
2021/06/01 12:33:09;;;;;;;2.40;2.30;;;;;;;;;;5031072;28;20426;-55
2021/06/01 12:36:56;;;;;;;3.03;2.73;;;;;;;;;;5031104;28;20775;-53
2021/06/01 12:43:59;;;;;;;2.77;2.53;;;;;;;;;;5031139;28;20393;-53
2021/06/01 13:31:05;;;;;;;3.30;3.00;;;;;;;;;;5043436;28;20435;-53
2021/06/01 13:46:42;;;;;;;4.93;3.20;;;;;;;;;;5048674;28;20397;-54
2021/06/01 13:49:14;;;;;;;3.07;2.77;;;;;;;;;;5030055;28;20469;-53
2021/06/01 13:51:59;;;;;;;2.80;2.60;;;;;;;;;;5039620;28;20422;-54
2021/06/01 13:59:52;;;;;;;3.50;3.03;;;;;;;;;;5032383;28;20454;-54
2021/06/01 14:54:59;;;;;;;2.60;2.20;;;;;;;;;;5035537;28;20402;-53
2021/06/01 14:55:32;;;;;;;2.03;1.90;;;;;;;;;;5037823;28;20632;-54
2021/06/01 15:05:29;;;;;;;2.70;2.30;;;;;;;;;;5052582;28;20463;-53
2021/06/01 15:10:39;;;;;;;13.10;11.80;;;;;;;;;;5031676;28;20405;-53
2021/06/01 15:41:23;;;;;;;2.60;2.40;;;;;;;;;;5041417;28;20413;-53
2021/06/01 15:47:47;;;;;;;2.40;2.20;;;;;;;;;;5032410;28;20401;-53
2021/06/01 15:51:53;;;;;;;2.33;2.10;;;;;;;;;;5051735;28;20397;-53
2021/06/01 16:14:08;;;;;;;5.13;2.73;;;;;;;;;;5051510;28;20755;-53
2021/06/01 16:30:10;;;;;;;2.30;2.20;;;;;;;;;;5031983;28;21009;-53
2021/06/01 16:43:43;;;;;;;3.00;2.70;;;;;;;;;;5034821;28;20421;-53
2021/06/01 17:05:57;;;;;;;2.77;2.57;;;;;;;;;;5030752;28;20442;-53
2021/06/01 17:11:18;;;;;;;2.30;2.10;;;;;;;;;;5030761;28;20402;-53
2021/06/01 17:13:49;;;;;;;2.73;2.53;;;;;;;;;;5030829;28;20479;-53
2021/06/01 17:16:32;;;;;;;2.93;2.67;;;;;;;;;;5031992;28;20399;-54
2021/06/01 17:30:37;;;;;;;3.33;3.03;;;;;;;;;;5031391;28;20394;-54
2021/06/01 17:35:54;;;;;;;3.83;2.97;;;;;;;;;;5035219;28;20521;-54
2021/06/01 17:38:20;;;;;;;3.40;2.37;;;;;;;;;;5034748;28;20910;-53
2021/06/01 17:40:46;;;;;;;2.90;2.33;;;;;;;;;;5034524;28;20405;-53
2021/06/01 17:43:13;;;;;;;2.43;2.23;;;;;;;;;;5034493;28;20402;-53
2021/06/01 17:45:41;;;;;;;7.60;2.70;;;;;;;;;;5034429;28;20402;-53
2021/06/01 17:48:13;;;;;;;2.20;2.10;;;;;;;;;;5034426;28;20462;-54
2021/06/01 17:50:39;;;;;;;5.20;2.50;;;;;;;;;;5034222;28;20894;-53
2021/06/01 17:53:06;;;;;;;2.30;2.20;;;;;;;;;;5034327;28;20410;-53
2021/06/01 17:55:33;;;;;;;3.27;2.77;;;;;;;;;;5034580;28;20452;-53
2021/06/01 17:57:59;;;;;;;2.80;2.60;;;;;;;;;;5034696;28;20445;-54
2021/06/01 18:00:27;;;;;;;3.10;2.80;;;;;;;;;;5043459;28;20405;-53
2021/06/01 18:02:53;;;;;;;4.00;2.40;;;;;;;;;;5049587;28;20908;-53
2021/06/01 18:05:25;;;;;;;2.13;2.03;;;;;;;;;;5051650;28;20855;-53
2021/06/01 18:08:01;;;;;;;2.50;2.30;;;;;;;;;;5047911;28;20987;-54
2021/06/01 18:35:08;;;;;;;2.43;2.33;;;;;;;;;;5049959;28;20468;-53
2021/06/01 18:43:10;;;;;;;121.53;103.57;;;;;;;;;;5044849;28;20412;-53
2021/06/01 19:29:37;;;;;;;5.73;2.90;;;;;;;;;;5036623;28;20991;-54
2021/06/01 19:51:20;;;;;;;6.10;4.30;;;;;;;;;;5051056;28;20470;-53
2021/06/01 19:53:47;;;;;;;4.00;2.77;;;;;;;;;;5043756;28;20456;-53
2021/06/01 19:56:13;;;;;;;3.13;2.83;;;;;;;;;;5039617;28;20414;-53
2021/06/01 19:58:40;;;;;;;2.83;2.63;;;;;;;;;;5033179;28;20433;-53
2021/06/01 20:01:07;;;;;;;11.33;9.47;;;;;;;;;;5033113;28;20981;-53
2021/06/01 20:03:34;;;;;;;2.93;2.70;;;;;;;;;;5047855;28;20421;-53
2021/06/01 20:06:00;;;;;;;3.30;3.00;;;;;;;;;;5040518;28;20504;-53
2021/06/01 20:08:27;;;;;;;3.67;2.87;;;;;;;;;;5035847;28;20889;-53
2021/06/01 20:10:54;;;;;;;24.73;18.70;;;;;;;;;;5039292;28;20859;-53
2021/06/01 20:13:21;;;;;;;4.20;3.90;;;;;;;;;;5044532;28;20932;-55
2021/06/01 20:15:47;;;;;;;3.33;3.13;;;;;;;;;;5036606;28;20414;-52
2021/06/01 20:18:14;;;;;;;3.47;2.97;;;;;;;;;;5036186;28;20436;-53
2021/06/01 20:20:44;;;;;;;8.30;4.90;;;;;;;;;;5051142;28;20397;-52
2021/06/01 20:23:10;;;;;;;5.40;4.13;;;;;;;;;;5048004;28;20443;-52
2021/06/01 20:25:38;;;;;;;3.37;3.10;;;;;;;;;;5048809;28;20418;-52
2021/06/01 20:28:06;;;;;;;3.60;3.30;;;;;;;;;;5032738;28;20800;-52
2021/06/01 20:30:41;;;;;;;3.43;3.10;;;;;;;;;;5031466;28;20886;-52
2021/06/01 20:33:08;;;;;;;4.43;3.00;;;;;;;;;;5049867;28;20412;-52
2021/06/01 20:35:38;;;;;;;3.00;2.67;;;;;;;;;;5051153;28;21062;-53
2021/06/01 20:38:04;;;;;;;3.00;2.80;;;;;;;;;;5033081;28;20487;-53
2021/06/01 20:40:30;;;;;;;5.50;2.93;;;;;;;;;;5040409;28;20607;-53
2021/06/01 20:42:57;;;;;;;3.93;3.43;;;;;;;;;;5050595;28;20795;-54
2021/06/01 20:45:28;;;;;;;3.10;2.87;;;;;;;;;;5041386;28;20425;-53
2021/06/01 20:48:02;;;;;;;3.80;3.37;;;;;;;;;;5050233;28;20429;-52
2021/06/01 20:50:29;;;;;;;3.23;3.03;;;;;;;;;;5037213;28;21139;-52
2021/06/01 20:52:55;;;;;;;3.27;3.00;;;;;;;;;;5035960;28;20420;-52
2021/06/01 20:55:21;;;;;;;3.93;2.40;;;;;;;;;;5041771;28;20492;-52
2021/06/01 20:57:51;;;;;;;3.40;3.10;;;;;;;;;;5051013;28;20406;-52
2021/06/01 21:00:17;;;;;;;3.53;2.90;;;;;;;;;;5033317;28;20493;-53
2021/06/01 21:02:43;;;;;;;3.30;3.10;;;;;;;;;;5031008;28;20398;-52
2021/06/01 21:05:12;;;;;;;2.67;2.47;;;;;;;;;;5031415;28;20409;-53
2021/06/01 21:07:38;;;;;;;2.83;2.63;;;;;;;;;;5030235;28;20412;-53
2021/06/01 21:10:05;;;;;;;3.30;3.10;;;;;;;;;;5041026;28;20512;-53
2021/06/01 21:12:31;;;;;;;6.27;2.50;;;;;;;;;;5049096;28;20408;-52
2021/06/01 21:14:58;;;;;;;4.23;2.80;;;;;;;;;;5051030;28;20766;-52
2021/06/01 21:17:25;;;;;;;3.60;3.30;;;;;;;;;;5050943;28;20448;-54
2021/06/01 21:19:51;;;;;;;3.00;2.80;;;;;;;;;;5051059;28;20417;-53
2021/06/01 21:22:17;;;;;;;2.80;2.67;;;;;;;;;;5050189;28;20401;-54
2021/06/01 21:24:43;;;;;;;3.10;2.90;;;;;;;;;;5050361;28;20412;-53
2021/06/01 21:27:09;;;;;;;5.33;3.20;;;;;;;;;;5050856;28;20437;-54
2021/06/01 21:29:36;;;;;;;4.40;3.13;;;;;;;;;;5050236;28;20558;-53
2021/06/01 21:32:07;;;;;;;3.50;3.20;;;;;;;;;;5050297;28;20406;-54
2021/06/01 21:34:37;;;;;;;3.80;2.60;;;;;;;;;;5051051;28;20897;-53
2021/06/01 21:37:04;;;;;;;4.03;2.80;;;;;;;;;;5048854;28;21013;-56
2021/06/01 21:39:32;;;;;;;3.07;2.87;;;;;;;;;;5048559;28;20466;-53